createdAt,value
2022-10-17T00:01:12.162Z,6.20
2022-10-17T00:03:40.738Z,6.00
2022-10-17T00:06:11.240Z,5.20
2022-10-17T00:08:39.151Z,4.40
2022-10-17T00:11:13.210Z,4.60
2022-10-17T00:13:40.235Z,5.10
2022-10-17T00:16:07.803Z,4.50
2022-10-17T00:18:34.877Z,4.50
2022-10-17T00:21:01.908Z,4.30
2022-10-17T00:23:30.610Z,4.30
2022-10-17T00:26:01.750Z,4.80
2022-10-17T00:28:28.795Z,4.50
2022-10-17T00:31:07.275Z,4.70
2022-10-17T00:33:35.797Z,4.80
2022-10-17T00:36:26.502Z,2.90
2022-10-17T00:38:57.852Z,3.40
2022-10-17T00:41:29.514Z,3.50
2022-10-17T00:43:59.514Z,3.60
2022-10-17T00:46:29.844Z,3.50
2022-10-17T00:48:59.254Z,4.30
2022-10-17T00:51:49.418Z,4.30
2022-10-17T00:54:20.582Z,3.80
2022-10-17T00:56:48.847Z,4.10
2022-10-17T00:59:18.166Z,3.80
2022-10-17T01:01:52.999Z,4.30
2022-10-17T01:04:20.890Z,5.30
2022-10-17T01:06:47.980Z,5.60
2022-10-17T01:09:14.955Z,4.80
2022-10-17T01:12:05.011Z,5.10
2022-10-17T01:17:37.470Z,4.00
2022-10-17T01:20:13.619Z,4.10
2022-10-17T01:23:11.187Z,4.30
2022-10-17T01:25:47.723Z,4.60
2022-10-17T01:28:27.223Z,4.60
2022-10-17T01:30:57.340Z,3.80
2022-10-17T01:33:34.057Z,3.90
2022-10-17T01:36:16.613Z,2.30
2022-10-17T01:39:13.642Z,3.40
2022-10-17T01:41:47.483Z,3.30
2022-10-17T01:44:49.568Z,3.90
2022-10-17T01:47:23.381Z,3.60
2022-10-17T01:49:54.095Z,4.70
2022-10-17T01:52:27.092Z,4.50
2022-10-17T01:54:59.853Z,4.00
2022-10-17T01:57:38.308Z,4.20
2022-10-17T02:00:09.805Z,4.50
2022-10-17T02:02:42.488Z,4.00
2022-10-17T02:05:10.647Z,4.00
2022-10-17T02:07:37.612Z,4.40
2022-10-17T02:10:10.936Z,4.30
2022-10-17T02:12:46.733Z,4.20
2022-10-17T02:15:39.003Z,4.50
2022-10-17T02:18:11.981Z,4.50
2022-10-17T02:21:25.456Z,4.90
2022-10-17T02:24:14.585Z,4.90
2022-10-17T02:26:48.079Z,4.90
2022-10-17T02:29:24.574Z,4.50
2022-10-17T02:32:02.119Z,5.10
2022-10-17T02:34:38.697Z,4.40
2022-10-17T02:37:08.673Z,4.90
2022-10-17T02:39:38.309Z,4.50
2022-10-17T02:42:10.267Z,4.60
2022-10-17T02:44:40.569Z,5.70
2022-10-17T02:47:19.394Z,4.40
2022-10-17T02:49:51.704Z,4.40
2022-10-17T02:52:45.698Z,4.70
2022-10-17T02:55:16.211Z,3.20
2022-10-17T02:57:54.187Z,3.70
2022-10-17T03:00:23.875Z,3.70
2022-10-17T03:02:52.700Z,3.90
2022-10-17T03:05:25.971Z,3.40
2022-10-17T03:07:54.381Z,3.90
2022-10-17T03:10:22.544Z,3.80
2022-10-17T03:12:49.611Z,3.60
2022-10-17T03:15:16.729Z,3.30
2022-10-17T03:20:16.876Z,3.90
2022-10-17T03:22:45.213Z,3.60
2022-10-17T03:25:12.266Z,3.80
2022-10-17T03:27:39.664Z,3.60
2022-10-17T03:30:07.627Z,4.10
2022-10-17T03:32:34.822Z,3.40
2022-10-17T03:35:02.303Z,3.40
2022-10-17T03:37:29.690Z,4.00
2022-10-17T03:39:57.215Z,3.90
2022-10-17T03:42:25.239Z,3.40
2022-10-17T03:44:52.192Z,3.80
2022-10-17T03:47:19.228Z,4.10
2022-10-17T03:49:46.461Z,3.90
2022-10-17T03:52:15.508Z,3.60
2022-10-17T03:54:42.510Z,4.00
2022-10-17T03:57:09.534Z,3.90
2022-10-17T03:59:36.634Z,4.10
2022-10-17T04:02:07.374Z,4.30
2022-10-17T04:04:34.507Z,4.20
2022-10-17T04:07:01.635Z,4.90
2022-10-17T04:09:28.722Z,3.50
2022-10-17T04:12:04.202Z,3.80
2022-10-17T04:14:31.536Z,4.10
2022-10-17T04:16:58.705Z,2.20
2022-10-17T04:19:26.110Z,3.50
2022-10-17T04:21:53.134Z,3.60
2022-10-17T04:24:20.836Z,4.70
2022-10-17T04:27:06.660Z,4.40
2022-10-17T04:29:36.354Z,4.00
2022-10-17T04:32:15.315Z,3.90
2022-10-17T04:35:05.593Z,4.50
2022-10-17T04:37:32.722Z,4.30
2022-10-17T04:40:01.733Z,3.90
2022-10-17T04:42:31.147Z,3.70
2022-10-17T04:44:58.423Z,3.90
2022-10-17T04:47:25.808Z,4.50
2022-10-17T04:49:52.947Z,4.00
2022-10-17T04:52:20.097Z,4.40
2022-10-17T04:54:49.627Z,4.50
2022-10-17T04:57:17.608Z,5.40
2022-10-17T04:59:51.843Z,5.10
2022-10-17T05:02:38.825Z,4.10
2022-10-17T05:05:06.221Z,4.80
2022-10-17T05:07:33.168Z,4.20
2022-10-17T05:10:08.696Z,4.60
2022-10-17T05:12:36.564Z,4.00
2022-10-17T05:15:05.591Z,3.80
2022-10-17T05:17:33.596Z,4.00
2022-10-17T05:20:00.655Z,4.10
2022-10-17T05:22:28.587Z,4.70
2022-10-17T05:24:56.211Z,4.10
2022-10-17T05:27:24.036Z,4.30
2022-10-17T05:29:51.117Z,4.50
2022-10-17T05:32:25.779Z,3.70
2022-10-17T05:34:52.709Z,4.70
2022-10-17T05:37:20.241Z,4.10
2022-10-17T05:39:51.598Z,4.80
2022-10-17T05:42:19.280Z,5.00
2022-10-17T05:44:46.473Z,4.70
2022-10-17T05:47:14.045Z,4.80
2022-10-17T05:49:47.333Z,5.30
2022-10-17T05:52:16.170Z,4.80
2022-10-17T05:55:02.086Z,5.30
2022-10-17T05:57:29.389Z,4.90
2022-10-17T05:59:56.992Z,5.30
2022-10-17T06:02:24.260Z,4.40
2022-10-17T06:04:51.429Z,4.90
2022-10-17T06:07:20.729Z,4.10
2022-10-17T06:09:48.495Z,4.80
2022-10-17T06:12:15.535Z,4.60
2022-10-17T06:14:43.364Z,4.30
2022-10-17T06:17:15.734Z,4.60
2022-10-17T06:19:45.163Z,4.10
2022-10-17T06:22:14.394Z,3.50
2022-10-17T06:24:42.517Z,4.10
2022-10-17T06:27:11.996Z,4.30
2022-10-17T06:29:41.292Z,4.40
2022-10-17T06:32:11.305Z,4.10
2022-10-17T06:34:42.377Z,4.60
2022-10-17T06:37:09.848Z,4.10
2022-10-17T06:39:38.652Z,4.30
2022-10-17T06:42:10.810Z,3.90
2022-10-17T06:44:53.719Z,3.80
2022-10-17T06:47:40.111Z,4.20
2022-10-17T06:50:20.567Z,3.90
2022-10-17T06:52:58.500Z,3.70
2022-10-17T06:55:44.117Z,3.20
2022-10-17T06:58:22.328Z,3.80
2022-10-17T07:01:13.588Z,3.50
2022-10-17T07:03:41.484Z,3.60
2022-10-17T07:06:11.075Z,3.60
2022-10-17T07:08:42.424Z,4.00
2022-10-17T07:11:14.426Z,3.40
2022-10-17T07:13:43.097Z,3.40
2022-10-17T07:16:11.347Z,3.40
2022-10-17T07:18:40.509Z,3.90
2022-10-17T07:21:08.918Z,3.50
2022-10-17T07:23:37.237Z,3.40
2022-10-17T07:26:08.483Z,3.30
2022-10-17T07:28:38.199Z,3.30
2022-10-17T07:31:17.803Z,3.30
2022-10-17T07:36:15.714Z,4.60
2022-10-17T07:38:42.957Z,4.50
2022-10-17T07:41:12.081Z,3.50
2022-10-17T07:43:39.209Z,4.00
2022-10-17T07:46:08.501Z,3.00
2022-10-17T07:48:35.712Z,3.50
2022-10-17T07:51:04.570Z,3.30
2022-10-17T07:53:32.311Z,3.20
2022-10-17T07:55:59.512Z,4.30
2022-10-17T07:58:26.617Z,3.90
2022-10-17T08:00:53.762Z,4.30
2022-10-17T08:03:21.090Z,3.70
2022-10-17T08:05:48.245Z,4.50
2022-10-17T08:08:16.728Z,4.30
2022-10-17T14:47:42.234Z,2.60
2022-10-17T14:50:12.441Z,2.40
2022-10-17T14:52:40.593Z,2.90
2022-10-17T14:55:24.957Z,2.80
2022-10-17T14:57:51.746Z,2.30
2022-10-17T15:00:20.797Z,2.80
2022-10-17T15:02:49.275Z,2.80
2022-10-17T15:05:16.782Z,3.00
2022-10-17T15:07:46.414Z,2.50
2022-10-17T15:10:35.127Z,2.80
2022-10-17T15:13:26.586Z,3.00
2022-10-17T15:15:53.228Z,3.00
2022-10-17T15:18:22.984Z,3.20
2022-10-17T15:20:56.240Z,3.20
2022-10-17T15:26:00.986Z,4.30
2022-10-17T15:28:28.295Z,3.60
2022-10-17T15:30:58.467Z,4.00
2022-10-17T15:33:25.558Z,3.80
2022-10-17T15:35:52.515Z,5.40
2022-10-17T15:38:19.651Z,7.60
2022-10-17T15:40:50.203Z,8.40
2022-10-17T15:43:19.863Z,10.90
2022-10-17T15:45:47.903Z,11.80
2022-10-17T15:48:29.475Z,11.30
2022-10-17T15:50:56.463Z,10.20
2022-10-17T15:53:25.756Z,10.60
2022-10-17T15:55:53.876Z,9.40
2022-10-17T15:58:23.332Z,9.50
2022-10-17T16:00:50.520Z,7.90
2022-10-17T16:03:17.294Z,6.50
2022-10-17T16:05:46.811Z,6.00
2022-10-17T16:08:14.249Z,5.90
2022-10-17T16:10:42.164Z,5.20
2022-10-17T16:13:21.552Z,5.40
2022-10-17T16:15:51.082Z,4.90
2022-10-17T16:18:17.988Z,5.10
2022-10-17T16:20:45.558Z,5.10
2022-10-17T16:23:13.809Z,4.90
2022-10-17T16:25:41.625Z,5.30
2022-10-17T16:28:11.379Z,4.80
2022-10-17T16:30:44.707Z,4.50
2022-10-17T16:33:11.880Z,4.20
2022-10-17T16:35:39.979Z,4.30
2022-10-17T16:38:07.339Z,4.10
2022-10-17T16:40:37.121Z,3.90
2022-10-17T16:43:04.579Z,3.90
2022-10-17T16:45:32.040Z,4.70
2022-10-17T16:48:01.233Z,4.30
2022-10-17T16:50:30.977Z,3.90
2022-10-17T16:52:58.048Z,4.40
2022-10-17T16:55:25.150Z,4.80
2022-10-17T16:57:52.631Z,4.60
2022-10-17T17:00:19.550Z,5.20
2022-10-17T17:02:47.584Z,4.60
2022-10-17T17:05:15.173Z,4.50
2022-10-17T17:07:42.527Z,4.10
2022-10-17T17:10:09.783Z,4.30
2022-10-17T17:12:37.338Z,3.80
2022-10-17T17:15:05.105Z,3.90
2022-10-17T17:17:49.295Z,3.80
2022-10-17T17:20:18.297Z,4.70
2022-10-17T17:22:45.664Z,5.00
2022-10-17T17:25:12.768Z,4.70
2022-10-17T17:27:41.025Z,4.80
2022-10-17T17:30:11.137Z,4.60
2022-10-17T17:32:38.356Z,4.60
2022-10-17T17:35:05.396Z,4.80
2022-10-17T17:37:33.663Z,4.80
2022-10-17T17:40:01.381Z,4.80
2022-10-17T17:42:28.843Z,4.50
2022-10-17T17:44:55.648Z,5.60
2022-10-17T17:47:22.526Z,6.40
2022-10-17T17:49:50.020Z,6.50
2022-10-17T17:52:16.887Z,5.60
2022-10-17T17:54:43.931Z,5.90
2022-10-17T17:57:11.879Z,5.70
2022-10-17T17:59:39.925Z,6.10
2022-10-17T18:02:09.099Z,6.40
2022-10-17T18:04:42.200Z,6.60
2022-10-17T18:07:09.506Z,6.60
2022-10-17T18:09:38.699Z,6.80
2022-10-17T18:12:09.251Z,5.80
2022-10-17T18:14:36.448Z,4.50
2022-10-17T18:17:03.791Z,5.10
2022-10-17T18:19:31.280Z,4.30
2022-10-17T18:22:00.756Z,4.80
2022-10-17T18:24:27.539Z,4.90
2022-10-17T18:29:29.026Z,4.70
2022-10-17T18:31:59.104Z,5.20
2022-10-17T18:34:26.902Z,5.60
2022-10-17T18:36:54.247Z,5.20
2022-10-17T18:39:21.627Z,5.60
2022-10-17T18:41:48.721Z,4.60
2022-10-17T18:44:16.281Z,4.80
2022-10-17T18:49:18.583Z,4.40
2022-10-17T18:51:46.298Z,4.50
2022-10-17T18:54:19.959Z,5.00
2022-10-17T18:56:49.315Z,5.10
2022-10-17T18:59:16.772Z,4.90
2022-10-17T19:01:43.950Z,4.90
2022-10-17T19:04:11.976Z,4.30
2022-10-17T19:06:39.870Z,4.50
2022-10-17T19:09:09.161Z,5.00
2022-10-17T19:11:37.921Z,5.10
2022-10-17T19:14:12.266Z,4.90
2022-10-17T19:16:43.072Z,4.20
2022-10-17T19:19:23.873Z,4.50
2022-10-17T19:21:51.942Z,4.60
2022-10-17T19:24:25.397Z,4.10
2022-10-17T19:26:55.999Z,4.00
2022-10-17T19:29:30.539Z,3.90
2022-10-17T19:31:59.020Z,5.20
2022-10-17T19:34:29.396Z,4.90
2022-10-17T19:36:56.285Z,5.30
2022-10-17T19:39:24.623Z,4.60
2022-10-17T19:41:52.079Z,4.90
2022-10-17T19:44:20.901Z,5.30
2022-10-17T19:46:48.941Z,4.60
2022-10-17T19:49:17.214Z,5.10
2022-10-17T19:51:44.790Z,4.70
2022-10-17T19:54:16.128Z,5.40
2022-10-17T19:56:44.066Z,5.40
2022-10-17T19:59:13.330Z,4.90
2022-10-17T20:01:40.675Z,4.70
2022-10-17T20:04:10.355Z,4.90
2022-10-17T20:06:40.715Z,5.40
2022-10-17T20:09:12.480Z,4.90
2022-10-17T20:11:48.559Z,5.10
2022-10-17T20:14:15.659Z,5.10
2022-10-17T20:16:44.332Z,5.50
2022-10-17T20:19:20.697Z,4.90
2022-10-17T20:21:47.668Z,5.30
2022-10-17T20:24:16.475Z,5.00
2022-10-17T20:26:44.242Z,4.70
2022-10-17T20:29:25.832Z,4.70
2022-10-17T20:31:53.766Z,4.80
2022-10-17T20:34:20.620Z,5.00
2022-10-17T20:36:48.100Z,4.90
2022-10-17T20:39:18.594Z,5.30
2022-10-17T20:41:46.356Z,4.70
2022-10-17T20:44:13.919Z,4.90
2022-10-17T20:46:52.722Z,5.40
2022-10-17T20:49:27.324Z,5.30
2022-10-17T20:51:54.166Z,4.30
2022-10-17T20:54:21.767Z,5.00
2022-10-17T20:56:49.044Z,4.80
2022-10-17T20:59:17.903Z,4.50
2022-10-17T21:01:46.131Z,4.50
2022-10-17T21:04:44.237Z,4.90
2022-10-17T21:07:01.232Z,5.00
2022-10-17T21:09:28.101Z,5.60
2022-10-17T21:11:56.223Z,5.20
2022-10-17T21:14:24.432Z,5.00
2022-10-17T21:16:53.652Z,5.20
2022-10-17T21:19:21.206Z,5.10
2022-10-17T21:21:49.693Z,5.80
2022-10-17T21:24:18.645Z,5.00
2022-10-17T21:26:48.628Z,4.50
2022-10-17T21:29:16.283Z,6.10
2022-10-17T21:31:46.430Z,4.90
2022-10-17T21:34:20.404Z,5.10
2022-10-17T21:36:48.734Z,5.10
2022-10-17T21:39:16.510Z,4.90
2022-10-17T21:41:44.246Z,5.50
2022-10-17T21:44:16.660Z,5.10
2022-10-17T21:46:45.831Z,5.40
2022-10-17T21:49:15.265Z,5.30
2022-10-17T21:51:47.080Z,4.80
2022-10-17T21:54:15.386Z,5.00
2022-10-17T21:56:42.526Z,5.40
2022-10-17T21:59:12.395Z,4.90
2022-10-17T22:01:43.281Z,5.10
2022-10-17T22:04:13.360Z,5.30
2022-10-17T22:06:42.406Z,5.30
2022-10-17T22:09:19.940Z,5.30
2022-10-17T22:11:54.492Z,4.90
2022-10-17T22:14:23.960Z,4.80
2022-10-17T22:16:52.128Z,5.20
2022-10-17T22:19:24.886Z,5.50
2022-10-17T22:21:54.871Z,5.20
2022-10-17T22:24:22.728Z,5.60
2022-10-17T22:26:52.158Z,5.20
2022-10-17T22:29:22.084Z,4.50
2022-10-17T22:31:51.243Z,5.30
2022-10-17T22:34:21.195Z,5.20
2022-10-17T22:36:50.395Z,5.70
2022-10-17T22:39:18.125Z,5.20
2022-10-17T22:41:44.897Z,5.70
2022-10-17T22:44:14.683Z,5.20
2022-10-17T22:46:41.657Z,4.70
2022-10-17T22:49:11.765Z,5.10
2022-10-17T22:51:41.170Z,5.20
2022-10-17T22:54:10.828Z,5.00
2022-10-17T22:56:38.079Z,5.50
2022-10-17T22:59:04.976Z,5.40
2022-10-17T23:01:31.876Z,5.00
2022-10-17T23:03:58.847Z,4.90
2022-10-17T23:06:25.869Z,4.80
2022-10-17T23:08:53.600Z,5.60
2022-10-17T23:11:20.822Z,5.60
2022-10-17T23:13:49.567Z,5.10
2022-10-17T23:16:16.526Z,5.20
2022-10-17T23:18:45.357Z,5.60
2022-10-17T23:21:12.122Z,4.60
2022-10-17T23:23:39.263Z,5.70
2022-10-17T23:26:09.250Z,5.40
2022-10-17T23:28:40.055Z,4.70
2022-10-17T23:31:21.386Z,5.50
2022-10-17T23:33:49.633Z,4.90
2022-10-17T23:36:19.724Z,5.40
2022-10-17T23:41:18.144Z,4.80
2022-10-17T23:43:48.471Z,5.20
2022-10-17T23:46:16.958Z,5.40
2022-10-17T23:48:45.997Z,5.30
2022-10-17T23:51:14.714Z,5.30
2022-10-17T23:53:43.160Z,5.00
2022-10-17T23:56:11.026Z,5.20
2022-10-17T23:58:39.707Z,5.30
